sensor_id;sensor_type;location;lat;lon;timestamp;temperature;humidity
18662;DHT22;61528;49.456;11.098;2022-09-20T00:01:09;9.70;99.90
18662;DHT22;61528;49.456;11.098;2022-09-20T00:06:04;9.80;99.90
18662;DHT22;61528;49.456;11.098;2022-09-20T00:08:31;9.80;99.90
18662;DHT22;61528;49.456;11.098;2022-09-20T00:11:02;9.80;99.90
18662;DHT22;61528;49.456;11.098;2022-09-20T00:15:55;9.80;99.90
18662;DHT22;61528;49.456;11.098;2022-09-20T00:18:21;9.70;99.90
18662;DHT22;61528;49.456;11.098;2022-09-20T00:20:48;9.70;99.90
18662;DHT22;61528;49.456;11.098;2022-09-20T00:23:15;9.70;99.90
18662;DHT22;61528;49.456;11.098;2022-09-20T00:25:42;9.70;99.90
18662;DHT22;61528;49.456;11.098;2022-09-20T00:28:08;9.70;99.90
18662;DHT22;61528;49.456;11.098;2022-09-20T00:30:35;9.80;99.90
18662;DHT22;61528;49.456;11.098;2022-09-20T00:33:02;9.70;99.90
18662;DHT22;61528;49.456;11.098;2022-09-20T00:35:28;9.70;99.90
18662;DHT22;61528;49.456;11.098;2022-09-20T00:37:55;9.80;99.90
18662;DHT22;61528;49.456;11.098;2022-09-20T00:40:23;9.70;99.90
18662;DHT22;61528;49.456;11.098;2022-09-20T00:55:30;9.90;99.90
18662;DHT22;61528;49.456;11.098;2022-09-20T00:57:57;9.80;99.90
18662;DHT22;61528;49.456;11.098;2022-09-20T01:00:25;9.80;99.90
18662;DHT22;61528;49.456;11.098;2022-09-20T01:02:55;9.70;99.90
18662;DHT22;61528;49.456;11.098;2022-09-20T01:05:22;9.60;99.90
18662;DHT22;61528;49.456;11.098;2022-09-20T01:07:49;9.60;99.90
18662;DHT22;61528;49.456;11.098;2022-09-20T01:10:15;9.50;99.90
18662;DHT22;61528;49.456;11.098;2022-09-20T01:12:42;9.50;99.90
18662;DHT22;61528;49.456;11.098;2022-09-20T01:15:09;9.50;99.90
18662;DHT22;61528;49.456;11.098;2022-09-20T01:17:38;9.50;99.90
18662;DHT22;61528;49.456;11.098;2022-09-20T01:27:53;9.40;99.90
18662;DHT22;61528;49.456;11.098;2022-09-20T01:30:21;9.50;99.90
18662;DHT22;61528;49.456;11.098;2022-09-20T01:35:53;9.60;99.90
18662;DHT22;61528;49.456;11.098;2022-09-20T01:41:11;9.60;99.90
18662;DHT22;61528;49.456;11.098;2022-09-20T01:46:28;9.50;99.90
18662;DHT22;61528;49.456;11.098;2022-09-20T03:13:42;9.80;99.90
18662;DHT22;61528;49.456;11.098;2022-09-20T03:19:23;9.70;99.90
18662;DHT22;61528;49.456;11.098;2022-09-20T03:42:22;9.60;99.90
18662;DHT22;61528;49.456;11.098;2022-09-20T03:45:14;9.60;99.90
18662;DHT22;61528;49.456;11.098;2022-09-20T06:25:49;9.60;99.90
18662;DHT22;61528;49.456;11.098;2022-09-20T06:28:27;9.60;99.90
18662;DHT22;61528;49.456;11.098;2022-09-20T06:30:55;9.50;99.90
18662;DHT22;61528;49.456;11.098;2022-09-20T06:36:01;9.50;99.90
18662;DHT22;61528;49.456;11.098;2022-09-20T06:39:12;9.70;99.90
18662;DHT22;61528;49.456;11.098;2022-09-20T06:41:59;9.80;99.90
18662;DHT22;61528;49.456;11.098;2022-09-20T06:44:25;9.80;99.90
18662;DHT22;61528;49.456;11.098;2022-09-20T06:46:51;9.80;99.90
18662;DHT22;61528;49.456;11.098;2022-09-20T06:49:21;9.80;99.90
18662;DHT22;61528;49.456;11.098;2022-09-20T06:56:46;10.00;99.90
18662;DHT22;61528;49.456;11.098;2022-09-20T06:59:13;10.10;99.90
18662;DHT22;61528;49.456;11.098;2022-09-20T07:01:40;10.10;99.90
18662;DHT22;61528;49.456;11.098;2022-09-20T07:04:06;10.00;99.90
18662;DHT22;61528;49.456;11.098;2022-09-20T07:06:37;10.20;99.90
18662;DHT22;61528;49.456;11.098;2022-09-20T07:09:04;10.20;99.90
18662;DHT22;61528;49.456;11.098;2022-09-20T07:11:30;10.30;99.90
18662;DHT22;61528;49.456;11.098;2022-09-20T07:13:58;10.30;99.90
18662;DHT22;61528;49.456;11.098;2022-09-20T07:16:24;10.30;99.90
18662;DHT22;61528;49.456;11.098;2022-09-20T07:18:51;10.30;99.90
18662;DHT22;61528;49.456;11.098;2022-09-20T07:21:18;10.20;99.90
18662;DHT22;61528;49.456;11.098;2022-09-20T07:23:45;10.20;99.90
18662;DHT22;61528;49.456;11.098;2022-09-20T07:26:24;10.30;99.90
18662;DHT22;61528;49.456;11.098;2022-09-20T07:28:51;10.20;99.90
18662;DHT22;61528;49.456;11.098;2022-09-20T07:36:12;10.30;99.90
18662;DHT22;61528;49.456;11.098;2022-09-20T07:38:39;10.30;99.90
18662;DHT22;61528;49.456;11.098;2022-09-20T07:41:05;10.40;99.90
18662;DHT22;61528;49.456;11.098;2022-09-20T07:48:26;11.30;99.90
18662;DHT22;61528;49.456;11.098;2022-09-20T07:51:06;10.50;99.90
18662;DHT22;61528;49.456;11.098;2022-09-20T07:56:19;10.70;99.90
18662;DHT22;61528;49.456;11.098;2022-09-20T07:58:45;10.60;99.90
18662;DHT22;61528;49.456;11.098;2022-09-20T08:03:39;10.60;99.90
18662;DHT22;61528;49.456;11.098;2022-09-20T08:06:07;10.60;99.90
18662;DHT22;61528;49.456;11.098;2022-09-20T08:11:27;10.80;99.90
18662;DHT22;61528;49.456;11.098;2022-09-20T08:13:55;10.80;99.90
18662;DHT22;61528;49.456;11.098;2022-09-20T08:16:21;10.80;99.90
18662;DHT22;61528;49.456;11.098;2022-09-20T08:18:50;10.80;99.90
18662;DHT22;61528;49.456;11.098;2022-09-20T08:23:45;11.00;99.90
18662;DHT22;61528;49.456;11.098;2022-09-20T08:26:17;11.00;99.90
18662;DHT22;61528;49.456;11.098;2022-09-20T08:28:44;11.00;99.90
18662;DHT22;61528;49.456;11.098;2022-09-20T08:31:12;11.10;99.90
18662;DHT22;61528;49.456;11.098;2022-09-20T08:33:40;11.30;99.90
18662;DHT22;61528;49.456;11.098;2022-09-20T08:36:08;11.20;99.90
18662;DHT22;61528;49.456;11.098;2022-09-20T08:38:35;11.30;99.90
18662;DHT22;61528;49.456;11.098;2022-09-20T08:43:43;11.40;99.90
18662;DHT22;61528;49.456;11.098;2022-09-20T08:46:14;11.50;99.90
18662;DHT22;61528;49.456;11.098;2022-09-20T08:48:42;11.50;99.90
18662;DHT22;61528;49.456;11.098;2022-09-20T08:51:10;11.50;99.90
18662;DHT22;61528;49.456;11.098;2022-09-20T08:53:43;11.50;99.90
18662;DHT22;61528;49.456;11.098;2022-09-20T08:56:09;11.50;99.90
18662;DHT22;61528;49.456;11.098;2022-09-20T08:58:36;11.40;99.90
18662;DHT22;61528;49.456;11.098;2022-09-20T09:01:04;11.50;99.90
18662;DHT22;61528;49.456;11.098;2022-09-20T09:03:31;11.60;99.90
18662;DHT22;61528;49.456;11.098;2022-09-20T09:05:57;11.70;99.90
18662;DHT22;61528;49.456;11.098;2022-09-20T09:08:27;11.70;99.90
18662;DHT22;61528;49.456;11.098;2022-09-20T09:11:12;11.80;99.90
18662;DHT22;61528;49.456;11.098;2022-09-20T09:16:54;11.70;99.90
18662;DHT22;61528;49.456;11.098;2022-09-20T09:19:32;11.70;99.90
18662;DHT22;61528;49.456;11.098;2022-09-20T09:22:07;11.70;99.90
18662;DHT22;61528;49.456;11.098;2022-09-20T09:37:32;12.00;99.90
18662;DHT22;61528;49.456;11.098;2022-09-20T09:42:33;12.20;99.90
18662;DHT22;61528;49.456;11.098;2022-09-20T09:45:21;12.20;99.90
18662;DHT22;61528;49.456;11.098;2022-09-20T09:47:50;12.20;99.90
18662;DHT22;61528;49.456;11.098;2022-09-20T09:53:00;12.20;99.90
18662;DHT22;61528;49.456;11.098;2022-09-20T10:28:16;12.70;99.90
18662;DHT22;61528;49.456;11.098;2022-09-20T10:33:29;12.70;99.90
18662;DHT22;61528;49.456;11.098;2022-09-20T10:36:08;12.70;99.90
18662;DHT22;61528;49.456;11.098;2022-09-20T10:39:21;12.70;99.90
18662;DHT22;61528;49.456;11.098;2022-09-20T11:22:36;13.40;99.90
18662;DHT22;61528;49.456;11.098;2022-09-20T11:25:10;13.50;99.90
18662;DHT22;61528;49.456;11.098;2022-09-20T11:28:01;13.60;99.90
18662;DHT22;61528;49.456;11.098;2022-09-20T11:30:32;13.70;99.90
18662;DHT22;61528;49.456;11.098;2022-09-20T11:33:27;13.60;99.90
18662;DHT22;61528;49.456;11.098;2022-09-20T11:36:02;13.50;99.90
18662;DHT22;61528;49.456;11.098;2022-09-20T11:38:39;13.50;99.90
18662;DHT22;61528;49.456;11.098;2022-09-20T11:43:45;13.40;99.90
18662;DHT22;61528;49.456;11.098;2022-09-20T11:46:28;13.50;99.90
18662;DHT22;61528;49.456;11.098;2022-09-20T11:49:03;13.50;99.90
18662;DHT22;61528;49.456;11.098;2022-09-20T11:54:57;13.40;99.90
18662;DHT22;61528;49.456;11.098;2022-09-20T11:57:27;13.40;99.90
18662;DHT22;61528;49.456;11.098;2022-09-20T11:59:59;13.60;99.90
18662;DHT22;61528;49.456;11.098;2022-09-20T12:02:47;13.70;99.90
18662;DHT22;61528;49.456;11.098;2022-09-20T12:05:36;13.70;99.90
18662;DHT22;61528;49.456;11.098;2022-09-20T12:08:28;13.70;99.90
18662;DHT22;61528;49.456;11.098;2022-09-20T12:11:05;13.60;99.90
18662;DHT22;61528;49.456;11.098;2022-09-20T12:13:35;13.60;99.90
18662;DHT22;61528;49.456;11.098;2022-09-20T12:16:05;13.70;99.90
18662;DHT22;61528;49.456;11.098;2022-09-20T12:21:05;13.60;99.90
18662;DHT22;61528;49.456;11.098;2022-09-20T12:28:54;13.60;99.90
18662;DHT22;61528;49.456;11.098;2022-09-20T12:34:01;13.40;99.90
18662;DHT22;61528;49.456;11.098;2022-09-20T12:36:30;13.30;99.90
18662;DHT22;61528;49.456;11.098;2022-09-20T12:39:04;13.30;99.90
18662;DHT22;61528;49.456;11.098;2022-09-20T12:41:54;13.20;99.90
18662;DHT22;61528;49.456;11.098;2022-09-20T12:44:36;13.10;99.90
18662;DHT22;61528;49.456;11.098;2022-09-20T13:02:57;14.50;99.90
18662;DHT22;61528;49.456;11.098;2022-09-20T13:05:41;14.40;99.90
18662;DHT22;61528;49.456;11.098;2022-09-20T13:08:18;14.30;99.90
18662;DHT22;61528;49.456;11.098;2022-09-20T13:13:50;14.20;99.90
18662;DHT22;61528;49.456;11.098;2022-09-20T13:17:07;14.20;99.90
18662;DHT22;61528;49.456;11.098;2022-09-20T13:19:18;14.30;99.90
18662;DHT22;61528;49.456;11.098;2022-09-20T13:29:47;14.80;99.90
18662;DHT22;61528;49.456;11.098;2022-09-20T13:32:30;14.90;99.90
18662;DHT22;61528;49.456;11.098;2022-09-20T13:52:56;15.50;99.90
18662;DHT22;61528;49.456;11.098;2022-09-20T13:57:52;15.40;99.90
18662;DHT22;61528;49.456;11.098;2022-09-20T14:00:18;15.50;99.90
18662;DHT22;61528;49.456;11.098;2022-09-20T14:02:47;15.50;99.90
18662;DHT22;61528;49.456;11.098;2022-09-20T14:05:17;15.50;99.90
18662;DHT22;61528;49.456;11.098;2022-09-20T14:07:45;15.60;99.90
18662;DHT22;61528;49.456;11.098;2022-09-20T14:10:31;15.50;99.90
18662;DHT22;61528;49.456;11.098;2022-09-20T14:13:04;15.40;99.90
18662;DHT22;61528;49.456;11.098;2022-09-20T14:15:37;15.40;99.90
18662;DHT22;61528;49.456;11.098;2022-09-20T14:18:05;15.20;99.90
18662;DHT22;61528;49.456;11.098;2022-09-20T14:20:32;15.20;99.90
18662;DHT22;61528;49.456;11.098;2022-09-20T14:22:59;15.10;99.90
18662;DHT22;61528;49.456;11.098;2022-09-20T14:25:27;15.20;99.90
18662;DHT22;61528;49.456;11.098;2022-09-20T14:28:16;15.30;99.90
18662;DHT22;61528;49.456;11.098;2022-09-20T14:30:42;15.40;99.90
18662;DHT22;61528;49.456;11.098;2022-09-20T14:33:14;15.40;99.90
18662;DHT22;61528;49.456;11.098;2022-09-20T14:35:49;15.40;99.90
18662;DHT22;61528;49.456;11.098;2022-09-20T14:38:16;15.40;99.90
18662;DHT22;61528;49.456;11.098;2022-09-20T14:40:45;15.50;99.90
18662;DHT22;61528;49.456;11.098;2022-09-20T14:43:33;15.40;99.90
18662;DHT22;61528;49.456;11.098;2022-09-20T14:46:15;15.40;99.90
18662;DHT22;61528;49.456;11.098;2022-09-20T14:48:41;15.30;99.90
18662;DHT22;61528;49.456;11.098;2022-09-20T14:53:35;15.20;99.90
18662;DHT22;61528;49.456;11.098;2022-09-20T14:58:32;15.10;99.90
18662;DHT22;61528;49.456;11.098;2022-09-20T15:01:04;15.10;99.90
18662;DHT22;61528;49.456;11.098;2022-09-20T15:03:41;15.10;99.90
18662;DHT22;61528;49.456;11.098;2022-09-20T15:06:11;15.10;99.90
18662;DHT22;61528;49.456;11.098;2022-09-20T15:08:37;15.10;99.90
18662;DHT22;61528;49.456;11.098;2022-09-20T15:11:03;15.20;99.90
18662;DHT22;61528;49.456;11.098;2022-09-20T15:13:30;15.10;99.90
18662;DHT22;61528;49.456;11.098;2022-09-20T15:15:55;15.00;99.90
18662;DHT22;61528;49.456;11.098;2022-09-20T15:18:25;15.00;99.90
18662;DHT22;61528;49.456;11.098;2022-09-20T15:20:52;14.90;99.90
18662;DHT22;61528;49.456;11.098;2022-09-20T15:23:19;15.00;99.90
18662;DHT22;61528;49.456;11.098;2022-09-20T15:25:48;15.00;99.90
18662;DHT22;61528;49.456;11.098;2022-09-20T15:28:15;15.10;99.90
18662;DHT22;61528;49.456;11.098;2022-09-20T15:30:46;15.10;99.90
18662;DHT22;61528;49.456;11.098;2022-09-20T15:33:13;15.10;99.90
18662;DHT22;61528;49.456;11.098;2022-09-20T15:35:43;15.10;99.90
18662;DHT22;61528;49.456;11.098;2022-09-20T15:38:10;15.00;99.90
18662;DHT22;61528;49.456;11.098;2022-09-20T15:40:40;14.90;99.90
18662;DHT22;61528;49.456;11.098;2022-09-20T15:43:06;14.90;99.90
18662;DHT22;61528;49.456;11.098;2022-09-20T15:45:34;14.90;99.90
18662;DHT22;61528;49.456;11.098;2022-09-20T15:48:00;14.80;99.90
18662;DHT22;61528;49.456;11.098;2022-09-20T15:50:27;14.40;99.90
18662;DHT22;61528;49.456;11.098;2022-09-20T15:52:54;14.10;99.90
18662;DHT22;61528;49.456;11.098;2022-09-20T15:55:20;14.20;99.90
18662;DHT22;61528;49.456;11.098;2022-09-20T16:07:41;13.90;99.90
18662;DHT22;61528;49.456;11.098;2022-09-20T16:10:07;13.90;99.90
18662;DHT22;61528;49.456;11.098;2022-09-20T16:12:33;14.00;99.90
18662;DHT22;61528;49.456;11.098;2022-09-20T16:14:59;14.00;99.90
18662;DHT22;61528;49.456;11.098;2022-09-20T16:17:25;14.10;99.90
18662;DHT22;61528;49.456;11.098;2022-09-20T16:20:11;14.10;99.90
18662;DHT22;61528;49.456;11.098;2022-09-20T16:22:55;13.90;99.90
18662;DHT22;61528;49.456;11.098;2022-09-20T16:25:21;13.90;99.90
18662;DHT22;61528;49.456;11.098;2022-09-20T16:27:47;13.90;99.90
18662;DHT22;61528;49.456;11.098;2022-09-20T16:30:13;13.80;99.90
18662;DHT22;61528;49.456;11.098;2022-09-20T16:32:39;13.90;99.90
18662;DHT22;61528;49.456;11.098;2022-09-20T16:35:05;13.90;99.90
18662;DHT22;61528;49.456;11.098;2022-09-20T16:37:32;13.80;99.90
18662;DHT22;61528;49.456;11.098;2022-09-20T16:39:58;13.60;99.90
18662;DHT22;61528;49.456;11.098;2022-09-20T16:42:25;13.40;99.90
18662;DHT22;61528;49.456;11.098;2022-09-20T16:44:52;13.10;99.90
18662;DHT22;61528;49.456;11.098;2022-09-20T16:47:18;13.00;99.90
18662;DHT22;61528;49.456;11.098;2022-09-20T16:49:48;12.90;99.90
18662;DHT22;61528;49.456;11.098;2022-09-20T16:57:08;12.40;99.90
18662;DHT22;61528;49.456;11.098;2022-09-20T16:59:34;12.20;99.90
18662;DHT22;61528;49.456;11.098;2022-09-20T17:01:59;12.10;99.90
18662;DHT22;61528;49.456;11.098;2022-09-20T17:04:25;12.00;99.90
18662;DHT22;61528;49.456;11.098;2022-09-20T17:06:51;12.00;99.90
18662;DHT22;61528;49.456;11.098;2022-09-20T17:09:17;12.10;99.90
18662;DHT22;61528;49.456;11.098;2022-09-20T17:11:45;12.00;99.90
18662;DHT22;61528;49.456;11.098;2022-09-20T17:14:13;12.10;99.90
18662;DHT22;61528;49.456;11.098;2022-09-20T17:16:40;12.10;99.90
18662;DHT22;61528;49.456;11.098;2022-09-20T17:19:09;12.00;99.90
18662;DHT22;61528;49.456;11.098;2022-09-20T17:21:38;11.90;99.90
18662;DHT22;61528;49.456;11.098;2022-09-20T17:24:05;11.90;99.90
18662;DHT22;61528;49.456;11.098;2022-09-20T17:26:36;11.90;99.90
18662;DHT22;61528;49.456;11.098;2022-09-20T17:29:06;11.90;99.90
18662;DHT22;61528;49.456;11.098;2022-09-20T17:31:36;11.90;99.90
18662;DHT22;61528;49.456;11.098;2022-09-20T17:34:04;11.90;99.90
18662;DHT22;61528;49.456;11.098;2022-09-20T17:36:45;11.80;99.90
18662;DHT22;61528;49.456;11.098;2022-09-20T17:39:13;11.90;99.90
18662;DHT22;61528;49.456;11.098;2022-09-20T17:41:44;11.90;99.90
18662;DHT22;61528;49.456;11.098;2022-09-20T17:44:10;11.80;99.90
18662;DHT22;61528;49.456;11.098;2022-09-20T17:46:38;11.70;99.90
18662;DHT22;61528;49.456;11.098;2022-09-20T17:49:07;11.80;99.90
18662;DHT22;61528;49.456;11.098;2022-09-20T17:54:41;11.60;99.90
18662;DHT22;61528;49.456;11.098;2022-09-20T17:57:07;11.60;99.90
18662;DHT22;61528;49.456;11.098;2022-09-20T17:59:33;11.60;99.90
18662;DHT22;61528;49.456;11.098;2022-09-20T18:01:59;11.50;99.90
18662;DHT22;61528;49.456;11.098;2022-09-20T18:04:24;11.50;99.90
18662;DHT22;61528;49.456;11.098;2022-09-20T18:06:51;11.50;99.90
18662;DHT22;61528;49.456;11.098;2022-09-20T18:09:20;11.40;99.90
18662;DHT22;61528;49.456;11.098;2022-09-20T18:11:48;11.30;99.90
18662;DHT22;61528;49.456;11.098;2022-09-20T18:14:20;11.20;99.90
18662;DHT22;61528;49.456;11.098;2022-09-20T18:16:53;11.20;99.90
18662;DHT22;61528;49.456;11.098;2022-09-20T18:19:20;11.20;99.90
18662;DHT22;61528;49.456;11.098;2022-09-20T18:21:47;11.10;99.90
18662;DHT22;61528;49.456;11.098;2022-09-20T18:24:13;11.00;99.90
18662;DHT22;61528;49.456;11.098;2022-09-20T18:26:39;11.00;99.90
18662;DHT22;61528;49.456;11.098;2022-09-20T18:29:06;11.00;99.90
18662;DHT22;61528;49.456;11.098;2022-09-20T18:31:42;11.00;99.90
18662;DHT22;61528;49.456;11.098;2022-09-20T18:34:18;10.90;99.90
18662;DHT22;61528;49.456;11.098;2022-09-20T18:36:52;10.80;99.90
18662;DHT22;61528;49.456;11.098;2022-09-20T18:39:26;10.90;99.90
18662;DHT22;61528;49.456;11.098;2022-09-20T18:41:52;10.80;99.90
18662;DHT22;61528;49.456;11.098;2022-09-20T18:44:19;10.70;99.90
18662;DHT22;61528;49.456;11.098;2022-09-20T18:46:48;10.70;99.90
18662;DHT22;61528;49.456;11.098;2022-09-20T18:49:14;10.60;99.90
18662;DHT22;61528;49.456;11.098;2022-09-20T18:51:42;10.50;99.90
18662;DHT22;61528;49.456;11.098;2022-09-20T18:54:09;10.50;99.90
18662;DHT22;61528;49.456;11.098;2022-09-20T18:56:40;10.60;99.90
18662;DHT22;61528;49.456;11.098;2022-09-20T18:59:18;10.50;99.90
18662;DHT22;61528;49.456;11.098;2022-09-20T19:01:54;10.40;99.90
18662;DHT22;61528;49.456;11.098;2022-09-20T19:10:19;10.40;99.90
18662;DHT22;61528;49.456;11.098;2022-09-20T19:15:35;10.30;99.90
18662;DHT22;61528;49.456;11.098;2022-09-20T19:20:47;10.30;99.90
18662;DHT22;61528;49.456;11.098;2022-09-20T19:28:43;10.20;99.90
18662;DHT22;61528;49.456;11.098;2022-09-20T19:31:22;10.10;99.90
18662;DHT22;61528;49.456;11.098;2022-09-20T19:33:49;10.10;99.90
18662;DHT22;61528;49.456;11.098;2022-09-20T19:36:16;10.00;99.90
18662;DHT22;61528;49.456;11.098;2022-09-20T19:52:14;10.00;99.90
18662;DHT22;61528;49.456;11.098;2022-09-20T19:54:40;9.90;99.90
18662;DHT22;61528;49.456;11.098;2022-09-20T19:57:21;10.00;99.90
18662;DHT22;61528;49.456;11.098;2022-09-20T19:59:49;10.00;99.90
18662;DHT22;61528;49.456;11.098;2022-09-20T20:02:16;10.00;99.90
18662;DHT22;61528;49.456;11.098;2022-09-20T20:04:42;10.00;99.90
18662;DHT22;61528;49.456;11.098;2022-09-20T20:07:28;10.00;99.90
18662;DHT22;61528;49.456;11.098;2022-09-20T20:12:49;9.70;99.90
18662;DHT22;61528;49.456;11.098;2022-09-20T20:15:49;9.60;99.90
18662;DHT22;61528;49.456;11.098;2022-09-20T20:18:27;9.60;99.90
18662;DHT22;61528;49.456;11.098;2022-09-20T20:20:57;9.70;99.90
18662;DHT22;61528;49.456;11.098;2022-09-20T20:26:08;9.70;99.90
18662;DHT22;61528;49.456;11.098;2022-09-20T20:28:36;9.70;99.90
18662;DHT22;61528;49.456;11.098;2022-09-20T20:31:03;9.50;99.90
18662;DHT22;61528;49.456;11.098;2022-09-20T20:35:59;9.40;99.90
18662;DHT22;61528;49.456;11.098;2022-09-20T20:38:25;9.40;99.90
18662;DHT22;61528;49.456;11.098;2022-09-20T20:41:03;9.50;99.90
18662;DHT22;61528;49.456;11.098;2022-09-20T20:43:30;9.50;99.90
18662;DHT22;61528;49.456;11.098;2022-09-20T20:45:56;9.40;99.90
18662;DHT22;61528;49.456;11.098;2022-09-20T20:51:04;9.20;99.90
18662;DHT22;61528;49.456;11.098;2022-09-20T20:53:34;9.20;99.90
18662;DHT22;61528;49.456;11.098;2022-09-20T20:56:06;9.10;99.90
18662;DHT22;61528;49.456;11.098;2022-09-20T20:58:34;9.20;99.90
18662;DHT22;61528;49.456;11.098;2022-09-20T21:01:10;9.20;99.90
18662;DHT22;61528;49.456;11.098;2022-09-20T21:03:38;9.30;99.90
18662;DHT22;61528;49.456;11.098;2022-09-20T21:06:05;9.30;99.90
18662;DHT22;61528;49.456;11.098;2022-09-20T21:08:32;9.30;99.90
18662;DHT22;61528;49.456;11.098;2022-09-20T21:11:07;9.20;99.90
18662;DHT22;61528;49.456;11.098;2022-09-20T21:16:04;8.90;99.90
18662;DHT22;61528;49.456;11.098;2022-09-20T21:20:57;8.70;99.90
18662;DHT22;61528;49.456;11.098;2022-09-20T21:23:23;8.80;99.90
18662;DHT22;61528;49.456;11.098;2022-09-20T21:26:10;8.80;99.90
18662;DHT22;61528;49.456;11.098;2022-09-20T21:28:40;8.90;99.90
18662;DHT22;61528;49.456;11.098;2022-09-20T21:31:09;8.70;99.90
18662;DHT22;61528;49.456;11.098;2022-09-20T21:36:24;8.50;99.90
18662;DHT22;61528;49.456;11.098;2022-09-20T21:38:51;8.60;99.90
18662;DHT22;61528;49.456;11.098;2022-09-20T21:41:22;8.60;99.90
18662;DHT22;61528;49.456;11.098;2022-09-20T21:43:51;8.80;99.90
18662;DHT22;61528;49.456;11.098;2022-09-20T21:46:24;8.70;99.90
18662;DHT22;61528;49.456;11.098;2022-09-20T21:48:57;8.50;99.90
18662;DHT22;61528;49.456;11.098;2022-09-20T21:51:25;8.40;99.90
18662;DHT22;61528;49.456;11.098;2022-09-20T21:53:52;8.40;99.90
18662;DHT22;61528;49.456;11.098;2022-09-20T21:56:24;8.30;99.90
18662;DHT22;61528;49.456;11.098;2022-09-20T21:58:52;7.70;99.90
18662;DHT22;61528;49.456;11.098;2022-09-20T22:01:20;8.40;99.90
18662;DHT22;61528;49.456;11.098;2022-09-20T22:03:54;8.20;99.90
18662;DHT22;61528;49.456;11.098;2022-09-20T23:00:26;7.30;99.90
18662;DHT22;61528;49.456;11.098;2022-09-20T23:02:57;7.20;99.90
18662;DHT22;61528;49.456;11.098;2022-09-20T23:05:25;7.20;99.90
18662;DHT22;61528;49.456;11.098;2022-09-20T23:07:52;7.20;99.90
18662;DHT22;61528;49.456;11.098;2022-09-20T23:10:18;7.20;99.90
18662;DHT22;61528;49.456;11.098;2022-09-20T23:12:43;7.20;99.90
18662;DHT22;61528;49.456;11.098;2022-09-20T23:15:09;7.30;99.90
18662;DHT22;61528;49.456;11.098;2022-09-20T23:57:02;6.50;99.90
18662;DHT22;61528;49.456;11.098;2022-09-20T23:59:30;6.20;99.90
